sensor_id;sensor_type;location;lat;lon;timestamp;pressure;altitude;pressure_sealevel;temperature;humidity
18918;BME280;9591;52.742;13.650;2024-01-30T00:01:36;102386.38;;;15.09;31.33
18918;BME280;9591;52.742;13.650;2024-01-30T00:04:23;102384.53;;;15.12;31.52
18918;BME280;9591;52.742;13.650;2024-01-30T00:07:10;102379.28;;;15.08;31.42
18918;BME280;9591;52.742;13.650;2024-01-30T00:09:57;102380.22;;;15.06;31.44
18918;BME280;9591;52.742;13.650;2024-01-30T00:12:46;102377.75;;;14.98;31.53
18918;BME280;9591;52.742;13.650;2024-01-30T00:15:33;102385.06;;;15.26;31.01
18918;BME280;9591;52.742;13.650;2024-01-30T00:18:20;102389.94;;;15.08;31.20
18918;BME280;9591;52.742;13.650;2024-01-30T00:21:07;102382.75;;;15.12;31.20
18918;BME280;9591;52.742;13.650;2024-01-30T00:23:54;102384.69;;;15.05;31.37
18918;BME280;9591;52.742;13.650;2024-01-30T00:26:41;102389.47;;;14.91;31.54
18918;BME280;9591;52.742;13.650;2024-01-30T00:29:29;102385.81;;;14.95;31.59
18918;BME280;9591;52.742;13.650;2024-01-30T00:32:19;102389.63;;;14.85;31.41
18918;BME280;9591;52.742;13.650;2024-01-30T00:35:06;102389.94;;;14.73;32.10
18918;BME280;9591;52.742;13.650;2024-01-30T00:37:55;102390.47;;;14.50;32.26
18918;BME280;9591;52.742;13.650;2024-01-30T00:40:42;102380.88;;;14.79;31.54
18918;BME280;9591;52.742;13.650;2024-01-30T00:43:29;102389.81;;;14.77;31.77
18918;BME280;9591;52.742;13.650;2024-01-30T00:46:17;102375.84;;;14.68;32.13
18918;BME280;9591;52.742;13.650;2024-01-30T00:49:04;102380.97;;;14.75;31.95
18918;BME280;9591;52.742;13.650;2024-01-30T00:51:51;102380.47;;;14.60;31.88
18918;BME280;9591;52.742;13.650;2024-01-30T00:54:38;102387.16;;;14.76;31.81
18918;BME280;9591;52.742;13.650;2024-01-30T00:57:25;102381.22;;;14.66;32.06
18918;BME280;9591;52.742;13.650;2024-01-30T01:00:13;102392.44;;;14.79;31.77
18918;BME280;9591;52.742;13.650;2024-01-30T01:03:04;102387.94;;;14.81;31.50
18918;BME280;9591;52.742;13.650;2024-01-30T01:05:50;102389.78;;;14.79;31.37
18918;BME280;9591;52.742;13.650;2024-01-30T01:08:37;102393.97;;;14.89;31.49
18918;BME280;9591;52.742;13.650;2024-01-30T01:11:24;102384.47;;;14.77;31.25
18918;BME280;9591;52.742;13.650;2024-01-30T01:14:11;102388.72;;;14.86;31.06
18918;BME280;9591;52.742;13.650;2024-01-30T01:16:58;102389.69;;;14.82;31.30
18918;BME280;9591;52.742;13.650;2024-01-30T01:19:47;102382.69;;;14.78;31.04
18918;BME280;9591;52.742;13.650;2024-01-30T01:22:34;102383.56;;;14.79;30.88
18918;BME280;9591;52.742;13.650;2024-01-30T01:25:20;102383.84;;;15.03;30.88
18918;BME280;9591;52.742;13.650;2024-01-30T01:28:07;102372.94;;;14.77;31.38
18918;BME280;9591;52.742;13.650;2024-01-30T01:30:54;102376.50;;;14.76;30.89
18918;BME280;9591;52.742;13.650;2024-01-30T01:33:44;102368.91;;;14.96;31.03
18918;BME280;9591;52.742;13.650;2024-01-30T01:36:33;102375.94;;;14.99;30.60
18918;BME280;9591;52.742;13.650;2024-01-30T01:39:21;102370.50;;;15.03;30.87
18918;BME280;9591;52.742;13.650;2024-01-30T01:42:09;102368.91;;;14.96;30.92
18918;BME280;9591;52.742;13.650;2024-01-30T01:44:56;102367.91;;;15.00;30.81
18918;BME280;9591;52.742;13.650;2024-01-30T01:47:43;102371.44;;;15.01;30.68
18918;BME280;9591;52.742;13.650;2024-01-30T01:50:32;102372.22;;;15.06;30.56
18918;BME280;9591;52.742;13.650;2024-01-30T01:53:21;102370.50;;;15.03;30.84
18918;BME280;9591;52.742;13.650;2024-01-30T01:56:08;102367.38;;;15.22;30.53
18918;BME280;9591;52.742;13.650;2024-01-30T01:58:59;102370.03;;;15.22;30.75
18918;BME280;9591;52.742;13.650;2024-01-30T02:01:46;102374.81;;;15.09;30.76
18918;BME280;9591;52.742;13.650;2024-01-30T02:04:35;102363.88;;;15.20;30.65
18918;BME280;9591;52.742;13.650;2024-01-30T02:07:22;102372.44;;;14.97;30.95
18918;BME280;9591;52.742;13.650;2024-01-30T02:10:10;102376.06;;;14.94;31.05
18918;BME280;9591;52.742;13.650;2024-01-30T02:12:57;102382.38;;;14.90;30.67
18918;BME280;9591;52.742;13.650;2024-01-30T02:15:49;102382.78;;;15.11;30.67
18918;BME280;9591;52.742;13.650;2024-01-30T02:18:35;102378.53;;;15.37;30.55
18918;BME280;9591;52.742;13.650;2024-01-30T02:21:29;102372.19;;;15.07;30.77
18918;BME280;9591;52.742;13.650;2024-01-30T02:24:16;102371.53;;;14.98;30.67
18918;BME280;9591;52.742;13.650;2024-01-30T02:27:03;102367.72;;;15.08;31.00
18918;BME280;9591;52.742;13.650;2024-01-30T02:29:50;102364.03;;;15.14;30.56
18918;BME280;9591;52.742;13.650;2024-01-30T02:32:37;102362.13;;;15.19;30.70
18918;BME280;9591;52.742;13.650;2024-01-30T02:35:23;102357.56;;;15.22;30.63
18918;BME280;9591;52.742;13.650;2024-01-30T02:38:12;102362.53;;;15.02;30.93
18918;BME280;9591;52.742;13.650;2024-01-30T02:40:59;102354.41;;;15.06;30.95
18918;BME280;9591;52.742;13.650;2024-01-30T02:43:45;102357.69;;;15.18;30.89
18918;BME280;9591;52.742;13.650;2024-01-30T02:46:33;102352.81;;;14.99;31.04
18918;BME280;9591;52.742;13.650;2024-01-30T02:49:20;102358.84;;;14.32;32.00
18918;BME280;9591;52.742;13.650;2024-01-30T02:52:06;102351.63;;;14.37;32.20
18918;BME280;9591;52.742;13.650;2024-01-30T02:54:55;102356.28;;;14.27;32.03
18918;BME280;9591;52.742;13.650;2024-01-30T02:57:43;102355.44;;;14.25;32.23
18918;BME280;9591;52.742;13.650;2024-01-30T03:00:29;102339.13;;;14.77;31.27
18918;BME280;9591;52.742;13.650;2024-01-30T03:03:16;102348.44;;;15.31;30.74
18918;BME280;9591;52.742;13.650;2024-01-30T03:06:04;102345.84;;;14.94;31.02
18918;BME280;9591;52.742;13.650;2024-01-30T03:08:51;102356.03;;;14.76;31.41
18918;BME280;9591;52.742;13.650;2024-01-30T03:11:40;102343.53;;;14.79;31.49
18918;BME280;9591;52.742;13.650;2024-01-30T03:14:27;102341.56;;;14.87;31.27
18918;BME280;9591;52.742;13.650;2024-01-30T03:17:14;102333.38;;;14.94;31.40
18918;BME280;9591;52.742;13.650;2024-01-30T03:20:00;102345.03;;;14.90;31.18
18918;BME280;9591;52.742;13.650;2024-01-30T03:22:49;102339.56;;;14.96;31.16
18918;BME280;9591;52.742;13.650;2024-01-30T03:25:36;102343.50;;;14.80;31.51
18918;BME280;9591;52.742;13.650;2024-01-30T03:28:24;102344.31;;;15.19;30.58
18918;BME280;9591;52.742;13.650;2024-01-30T03:31:14;102347.75;;;14.89;31.21
18918;BME280;9591;52.742;13.650;2024-01-30T03:34:01;102342.84;;;14.72;31.48
18918;BME280;9591;52.742;13.650;2024-01-30T03:36:48;102341.00;;;14.74;31.18
18918;BME280;9591;52.742;13.650;2024-01-30T03:39:37;102342.84;;;14.72;31.89
18918;BME280;9591;52.742;13.650;2024-01-30T03:42:24;102332.19;;;14.72;31.67
18918;BME280;9591;52.742;13.650;2024-01-30T03:45:12;102338.97;;;14.48;32.12
18918;BME280;9591;52.742;13.650;2024-01-30T03:47:59;102328.06;;;14.59;31.86
18918;BME280;9591;52.742;13.650;2024-01-30T03:50:46;102326.34;;;14.56;31.91
18918;BME280;9591;52.742;13.650;2024-01-30T03:53:32;102336.41;;;14.43;31.80
18918;BME280;9591;52.742;13.650;2024-01-30T03:56:19;102333.06;;;14.32;32.37
18918;BME280;9591;52.742;13.650;2024-01-30T03:59:06;102335.88;;;14.26;32.49
18918;BME280;9591;52.742;13.650;2024-01-30T04:01:54;102338.22;;;14.40;32.15
18918;BME280;9591;52.742;13.650;2024-01-30T04:04:42;102338.47;;;14.29;32.57
18918;BME280;9591;52.742;13.650;2024-01-30T04:07:29;102339.19;;;14.37;32.34
18918;BME280;9591;52.742;13.650;2024-01-30T04:10:16;102335.56;;;14.40;32.08
18918;BME280;9591;52.742;13.650;2024-01-30T04:13:03;102331.25;;;14.34;32.09
18918;BME280;9591;52.742;13.650;2024-01-30T04:15:52;102346.28;;;14.37;32.24
18918;BME280;9591;52.742;13.650;2024-01-30T04:18:42;102338.16;;;14.45;31.98
18918;BME280;9591;52.742;13.650;2024-01-30T04:21:28;102339.84;;;14.49;31.91
18918;BME280;9591;52.742;13.650;2024-01-30T04:24:15;102343.72;;;14.32;32.86
18918;BME280;9591;52.742;13.650;2024-01-30T04:27:04;102346.97;;;14.48;32.17
18918;BME280;9591;52.742;13.650;2024-01-30T04:29:50;102345.06;;;14.53;32.10
18918;BME280;9591;52.742;13.650;2024-01-30T04:32:37;102346.31;;;14.74;31.68
18918;BME280;9591;52.742;13.650;2024-01-30T04:35:25;102350.97;;;14.67;31.93
18918;BME280;9591;52.742;13.650;2024-01-30T04:38:12;102341.00;;;14.74;31.96
18918;BME280;9591;52.742;13.650;2024-01-30T04:41:00;102335.75;;;14.71;32.14
18918;BME280;9591;52.742;13.650;2024-01-30T04:43:46;102337.69;;;15.00;31.83
18918;BME280;9591;52.742;13.650;2024-01-30T04:46:33;102324.63;;;14.89;31.67
18918;BME280;9591;52.742;13.650;2024-01-30T04:49:20;102329.25;;;14.81;31.97
18918;BME280;9591;52.742;13.650;2024-01-30T04:52:08;102329.06;;;14.89;31.84
18918;BME280;9591;52.742;13.650;2024-01-30T04:54:56;102341.00;;;14.74;32.12
18918;BME280;9591;52.742;13.650;2024-01-30T04:57:42;102333.25;;;14.65;32.08
18918;BME280;9591;52.742;13.650;2024-01-30T05:00:29;102329.81;;;14.60;32.17
18918;BME280;9591;52.742;13.650;2024-01-30T05:03:16;102329.94;;;14.54;32.43
18918;BME280;9591;52.742;13.650;2024-01-30T05:06:03;102328.53;;;14.74;31.96
18918;BME280;9591;52.742;13.650;2024-01-30T05:08:51;102324.41;;;14.63;32.32
18918;BME280;9591;52.742;13.650;2024-01-30T05:11:38;102322.00;;;14.52;32.46
18918;BME280;9591;52.742;13.650;2024-01-30T05:14:25;102326.13;;;14.99;31.70
18918;BME280;9591;52.742;13.650;2024-01-30T05:17:12;102319.66;;;14.74;32.33
18918;BME280;9591;52.742;13.650;2024-01-30T05:19:59;102314.25;;;14.77;32.01
18918;BME280;9591;52.742;13.650;2024-01-30T05:22:45;102307.69;;;14.90;31.97
18918;BME280;9591;52.742;13.650;2024-01-30T05:25:34;102311.88;;;14.66;32.14
18918;BME280;9591;52.742;13.650;2024-01-30T05:28:20;102311.06;;;14.63;32.63
18918;BME280;9591;52.742;13.650;2024-01-30T05:31:07;102307.25;;;14.73;32.12
18918;BME280;9591;52.742;13.650;2024-01-30T05:33:54;102314.63;;;14.63;32.21
18918;BME280;9591;52.742;13.650;2024-01-30T05:36:41;102318.75;;;14.75;32.37
18918;BME280;9591;52.742;13.650;2024-01-30T05:39:28;102323.97;;;14.80;32.23
18918;BME280;9591;52.742;13.650;2024-01-30T05:42:19;102327.81;;;15.03;32.05
18918;BME280;9591;52.742;13.650;2024-01-30T05:45:06;102328.81;;;14.99;31.87
18918;BME280;9591;52.742;13.650;2024-01-30T05:47:54;102335.97;;;14.97;31.96
18918;BME280;9591;52.742;13.650;2024-01-30T05:50:41;102332.50;;;14.94;32.10
18918;BME280;9591;52.742;13.650;2024-01-30T05:53:27;102338.94;;;14.85;31.78
18918;BME280;9591;52.742;13.650;2024-01-30T05:56:14;102335.06;;;14.63;32.43
18918;BME280;9591;52.742;13.650;2024-01-30T05:59:02;102343.28;;;14.54;32.67
18918;BME280;9591;52.742;13.650;2024-01-30T06:01:49;102336.81;;;14.64;32.38
18918;BME280;9591;52.742;13.650;2024-01-30T06:04:36;102337.44;;;14.73;32.02
18918;BME280;9591;52.742;13.650;2024-01-30T06:07:23;102334.09;;;14.67;32.27
18918;BME280;9591;52.742;13.650;2024-01-30T06:10:10;102329.94;;;14.54;32.70
18918;BME280;9591;52.742;13.650;2024-01-30T06:12:57;102325.41;;;14.17;33.25
18918;BME280;9591;52.742;13.650;2024-01-30T06:15:45;102317.94;;;14.34;32.67
18918;BME280;9591;52.742;13.650;2024-01-30T06:18:32;102327.59;;;14.77;32.27
18918;BME280;9591;52.742;13.650;2024-01-30T06:21:19;102321.41;;;14.75;32.50
18918;BME280;9591;52.742;13.650;2024-01-30T06:24:06;102319.00;;;14.66;32.52
18918;BME280;9591;52.742;13.650;2024-01-30T06:26:53;102309.75;;;14.43;32.66
18918;BME280;9591;52.742;13.650;2024-01-30T06:29:40;102309.94;;;14.73;32.35
18918;BME280;9591;52.742;13.650;2024-01-30T06:32:28;102307.38;;;14.68;32.71
18918;BME280;9591;52.742;13.650;2024-01-30T06:35:19;102313.75;;;14.97;32.14
18918;BME280;9591;52.742;13.650;2024-01-30T06:38:07;102318.75;;;14.75;32.39
18918;BME280;9591;52.742;13.650;2024-01-30T06:40:54;102311.44;;;14.83;32.20
18918;BME280;9591;52.742;13.650;2024-01-30T06:43:41;102310.66;;;14.78;32.43
18918;BME280;9591;52.742;13.650;2024-01-30T06:46:30;102315.00;;;14.82;32.25
18918;BME280;9591;52.742;13.650;2024-01-30T06:49:19;102317.56;;;14.87;32.03
18918;BME280;9591;52.742;13.650;2024-01-30T06:52:07;102318.16;;;14.98;32.03
18918;BME280;9591;52.742;13.650;2024-01-30T06:54:54;102322.59;;;14.99;32.16
18918;BME280;9591;52.742;13.650;2024-01-30T06:57:41;102320.41;;;15.15;31.76
18918;BME280;9591;52.742;13.650;2024-01-30T07:00:28;102323.50;;;14.98;32.03
18918;BME280;9591;52.742;13.650;2024-01-30T07:03:15;102320.53;;;15.10;32.07
18918;BME280;9591;52.742;13.650;2024-01-30T07:06:03;102322.88;;;15.22;31.64
18918;BME280;9591;52.742;13.650;2024-01-30T07:08:50;102314.69;;;14.94;32.20
18918;BME280;9591;52.742;13.650;2024-01-30T07:11:37;102321.88;;;14.92;32.10
18918;BME280;9591;52.742;13.650;2024-01-30T07:14:24;102316.38;;;14.98;32.31
18918;BME280;9591;52.742;13.650;2024-01-30T07:17:11;102318.84;;;15.06;31.87
18918;BME280;9591;52.742;13.650;2024-01-30T07:19:58;102311.19;;;15.26;31.63
18918;BME280;9591;52.742;13.650;2024-01-30T07:22:46;102314.41;;;15.39;31.54
18918;BME280;9591;52.742;13.650;2024-01-30T07:25:33;102314.09;;;15.51;31.37
18918;BME280;9591;52.742;13.650;2024-01-30T07:28:21;102306.53;;;15.34;31.41
18918;BME280;9591;52.742;13.650;2024-01-30T07:31:10;102306.19;;;15.14;31.85
18918;BME280;9591;52.742;13.650;2024-01-30T07:33:56;102308.81;;;15.48;31.32
18918;BME280;9591;52.742;13.650;2024-01-30T07:36:43;102310.16;;;15.64;31.34
18918;BME280;9591;52.742;13.650;2024-01-30T07:39:31;102318.91;;;15.69;31.19
18918;BME280;9591;52.742;13.650;2024-01-30T07:42:18;102309.81;;;15.77;31.20
18918;BME280;9591;52.742;13.650;2024-01-30T07:45:06;102303.97;;;15.62;31.03
18918;BME280;9591;52.742;13.650;2024-01-30T07:47:53;102307.25;;;15.72;31.27
18918;BME280;9591;52.742;13.650;2024-01-30T07:50:39;102301.19;;;15.67;31.42
18918;BME280;9591;52.742;13.650;2024-01-30T07:53:26;102291.16;;;16.04;31.01
18918;BME280;9591;52.742;13.650;2024-01-30T07:56:14;102306.41;;;16.01;30.68
18918;BME280;9591;52.742;13.650;2024-01-30T07:59:01;102289.72;;;16.22;30.59
18918;BME280;9591;52.742;13.650;2024-01-30T08:01:48;102285.31;;;16.21;30.58
18918;BME280;9591;52.742;13.650;2024-01-30T08:04:35;102287.44;;;16.10;30.84
18918;BME280;9591;52.742;13.650;2024-01-30T08:07:22;102288.94;;;16.19;30.35
18918;BME280;9591;52.742;13.650;2024-01-30T08:10:11;102288.41;;;16.35;30.70
18918;BME280;9591;52.742;13.650;2024-01-30T08:12:59;102288.31;;;16.38;30.43
18918;BME280;9591;52.742;13.650;2024-01-30T08:15:46;102284.50;;;16.74;29.92
18918;BME280;9591;52.742;13.650;2024-01-30T08:18:33;102289.94;;;16.70;30.11
18918;BME280;9591;52.742;13.650;2024-01-30T08:21:20;102281.91;;;16.16;30.92
18918;BME280;9591;52.742;13.650;2024-01-30T08:24:07;102291.25;;;16.85;29.88
18918;BME280;9591;52.742;13.650;2024-01-30T08:26:54;102290.63;;;16.77;30.07
18918;BME280;9591;52.742;13.650;2024-01-30T08:29:43;102288.00;;;17.27;29.34
18918;BME280;9591;52.742;13.650;2024-01-30T08:32:29;102287.66;;;17.11;29.68
18918;BME280;9591;52.742;13.650;2024-01-30T08:35:16;102293.84;;;17.13;29.61
18918;BME280;9591;52.742;13.650;2024-01-30T08:38:03;102275.72;;;17.21;29.65
18918;BME280;9591;52.742;13.650;2024-01-30T08:40:50;102274.09;;;17.41;29.61
18918;BME280;9591;52.742;13.650;2024-01-30T08:43:37;102268.28;;;17.29;30.09
18918;BME280;9591;52.742;13.650;2024-01-30T08:46:25;102265.66;;;17.51;29.60
18918;BME280;9591;52.742;13.650;2024-01-30T08:49:13;102269.63;;;17.41;29.71
18918;BME280;9591;52.742;13.650;2024-01-30T08:52:00;102268.94;;;17.59;29.90
18918;BME280;9591;52.742;13.650;2024-01-30T08:54:47;102271.09;;;17.50;29.68
18918;BME280;9591;52.742;13.650;2024-01-30T08:57:34;102260.38;;;17.50;30.09
18918;BME280;9591;52.742;13.650;2024-01-30T09:00:21;102268.34;;;17.76;29.79
18918;BME280;9591;52.742;13.650;2024-01-30T09:03:09;102269.09;;;17.80;29.50
18918;BME280;9591;52.742;13.650;2024-01-30T09:05:56;102271.00;;;17.99;29.31
18918;BME280;9591;52.742;13.650;2024-01-30T09:08:43;102261.06;;;17.80;29.50
18918;BME280;9591;52.742;13.650;2024-01-30T09:11:30;102272.50;;;17.60;29.42
18918;BME280;9591;52.742;13.650;2024-01-30T09:14:17;102278.41;;;17.69;29.13
18918;BME280;9591;52.742;13.650;2024-01-30T09:17:03;102273.06;;;17.93;28.94
18918;BME280;9591;52.742;13.650;2024-01-30T09:19:52;102282.56;;;18.23;28.40
18918;BME280;9591;52.742;13.650;2024-01-30T09:22:39;102277.81;;;18.08;28.51
18918;BME280;9591;52.742;13.650;2024-01-30T09:25:26;102268.09;;;18.27;28.61
18918;BME280;9591;52.742;13.650;2024-01-30T09:28:13;102276.88;;;18.31;28.26
18918;BME280;9591;52.742;13.650;2024-01-30T09:31:00;102281.44;;;18.29;28.81
18918;BME280;9591;52.742;13.650;2024-01-30T09:33:46;102274.78;;;18.61;28.38
18918;BME280;9591;52.742;13.650;2024-01-30T09:36:36;102271.59;;;18.73;28.29
18918;BME280;9591;52.742;13.650;2024-01-30T09:39:22;102273.03;;;18.38;28.75
18918;BME280;9591;52.742;13.650;2024-01-30T09:42:17;102272.16;;;18.38;28.73
18918;BME280;9591;52.742;13.650;2024-01-30T09:45:05;102274.72;;;18.19;28.84
18918;BME280;9591;52.742;13.650;2024-01-30T09:47:52;102271.47;;;18.76;28.54
18918;BME280;9591;52.742;13.650;2024-01-30T09:50:39;102270.53;;;18.77;28.07
18918;BME280;9591;52.742;13.650;2024-01-30T09:53:27;102274.28;;;19.14;27.80
18918;BME280;9591;52.742;13.650;2024-01-30T09:56:14;102265.19;;;18.97;27.79
18918;BME280;9591;52.742;13.650;2024-01-30T09:59:02;102272.03;;;19.05;27.77
18918;BME280;9591;52.742;13.650;2024-01-30T10:01:49;102271.16;;;18.84;28.06
18918;BME280;9591;52.742;13.650;2024-01-30T10:04:36;102271.06;;;19.26;27.51
18918;BME280;9591;52.742;13.650;2024-01-30T10:07:23;102263.34;;;19.18;27.60
18918;BME280;9591;52.742;13.650;2024-01-30T10:10:11;102245.88;;;19.28;27.54
18918;BME280;9591;52.742;13.650;2024-01-30T10:12:58;102254.41;;;19.38;27.47
18918;BME280;9591;52.742;13.650;2024-01-30T10:15:49;102245.69;;;18.72;27.83
18918;BME280;9591;52.742;13.650;2024-01-30T10:18:37;102246.91;;;19.26;27.49
18918;BME280;9591;52.742;13.650;2024-01-30T10:21:29;102249.63;;;19.06;27.74
18918;BME280;9591;52.742;13.650;2024-01-30T10:24:16;102240.50;;;18.89;28.10
18918;BME280;9591;52.742;13.650;2024-01-30T10:27:05;102233.97;;;18.95;28.00
18918;BME280;9591;52.742;13.650;2024-01-30T10:29:52;102239.44;;;19.32;27.44
18918;BME280;9591;52.742;13.650;2024-01-30T10:32:39;102239.78;;;19.25;27.67
18918;BME280;9591;52.742;13.650;2024-01-30T10:35:25;102247.44;;;19.34;27.78
18918;BME280;9591;52.742;13.650;2024-01-30T10:38:15;102234.53;;;19.22;27.59
18918;BME280;9591;52.742;13.650;2024-01-30T10:41:04;102241.56;;;19.45;27.45
18918;BME280;9591;52.742;13.650;2024-01-30T10:44:01;102241.13;;;19.55;27.13
18918;BME280;9591;52.742;13.650;2024-01-30T10:46:56;102238.19;;;19.21;27.51
18918;BME280;9591;52.742;13.650;2024-01-30T10:49:46;102237.97;;;19.25;28.06
18918;BME280;9591;52.742;13.650;2024-01-30T10:52:34;102236.81;;;18.92;28.38
18918;BME280;9591;52.742;13.650;2024-01-30T10:55:22;102197.03;;;19.20;26.79
18918;BME280;9591;52.742;13.650;2024-01-30T10:58:09;102232.94;;;19.18;27.36
18918;BME280;9591;52.742;13.650;2024-01-30T11:00:59;102231.19;;;19.17;27.25
18918;BME280;9591;52.742;13.650;2024-01-30T11:03:46;102229.34;;;18.98;27.16
18918;BME280;9591;52.742;13.650;2024-01-30T11:06:40;102225.72;;;19.59;26.72
18918;BME280;9591;52.742;13.650;2024-01-30T11:09:29;102222.78;;;18.85;27.45
18918;BME280;9591;52.742;13.650;2024-01-30T11:12:16;102227.06;;;19.88;26.41
18918;BME280;9591;52.742;13.650;2024-01-30T11:15:05;102223.22;;;18.53;27.82
18918;BME280;9591;52.742;13.650;2024-01-30T11:17:53;102223.84;;;19.41;27.13
18918;BME280;9591;52.742;13.650;2024-01-30T11:20:46;102209.38;;;18.42;28.08
18918;BME280;9591;52.742;13.650;2024-01-30T11:23:34;102193.63;;;19.75;26.62
18918;BME280;9591;52.742;13.650;2024-01-30T11:26:24;102218.19;;;18.67;27.51
18918;BME280;9591;52.742;13.650;2024-01-30T11:29:14;102214.44;;;18.91;27.44
18918;BME280;9591;52.742;13.650;2024-01-30T11:32:02;102191.16;;;19.70;26.73
18918;BME280;9591;52.742;13.650;2024-01-30T11:34:50;102198.22;;;18.94;27.22
18918;BME280;9591;52.742;13.650;2024-01-30T11:37:37;102207.91;;;18.34;27.94
18918;BME280;9591;52.742;13.650;2024-01-30T11:40:26;102160.91;;;18.88;27.05
18918;BME280;9591;52.742;13.650;2024-01-30T11:43:15;102206.19;;;19.35;27.01
18918;BME280;9591;52.742;13.650;2024-01-30T11:46:05;102203.50;;;19.55;26.93
18918;BME280;9591;52.742;13.650;2024-01-30T11:48:52;102205.69;;;19.46;26.99
18918;BME280;9591;52.742;13.650;2024-01-30T11:51:41;102202.84;;;19.69;26.48
18918;BME280;9591;52.742;13.650;2024-01-30T11:54:28;102197.78;;;19.99;26.66
18918;BME280;9591;52.742;13.650;2024-01-30T11:57:16;102197.78;;;19.99;26.59
18918;BME280;9591;52.742;13.650;2024-01-30T12:00:03;102203.72;;;19.70;26.88
18918;BME280;9591;52.742;13.650;2024-01-30T12:02:55;102182.72;;;20.14;26.23
18918;BME280;9591;52.742;13.650;2024-01-30T12:05:42;102188.88;;;20.35;26.36
18918;BME280;9591;52.742;13.650;2024-01-30T12:08:31;102185.53;;;19.93;26.43
18918;BME280;9591;52.742;13.650;2024-01-30T12:11:18;102176.78;;;19.71;27.45
18918;BME280;9591;52.742;13.650;2024-01-30T12:14:05;102176.94;;;20.04;26.36
18918;BME280;9591;52.742;13.650;2024-01-30T12:16:52;102171.25;;;19.55;26.11
18918;BME280;9591;52.742;13.650;2024-01-30T12:19:39;102169.88;;;20.02;26.11
18918;BME280;9591;52.742;13.650;2024-01-30T12:22:26;102169.94;;;19.83;26.66
18918;BME280;9591;52.742;13.650;2024-01-30T12:25:16;102164.06;;;20.47;26.30
18918;BME280;9591;52.742;13.650;2024-01-30T12:28:03;102152.56;;;19.90;26.69
18918;BME280;9591;52.742;13.650;2024-01-30T12:30:55;102158.38;;;20.53;26.23
18918;BME280;9591;52.742;13.650;2024-01-30T12:33:42;102149.25;;;20.38;26.07
18918;BME280;9591;52.742;13.650;2024-01-30T12:36:29;102147.06;;;20.27;26.40
18918;BME280;9591;52.742;13.650;2024-01-30T12:39:16;102145.78;;;20.17;26.45
18918;BME280;9591;52.742;13.650;2024-01-30T12:42:05;102137.63;;;20.72;25.58
18918;BME280;9591;52.742;13.650;2024-01-30T12:44:52;102135.41;;;20.96;25.83
18918;BME280;9591;52.742;13.650;2024-01-30T12:47:39;102133.44;;;20.67;25.69
18918;BME280;9591;52.742;13.650;2024-01-30T12:50:26;102133.69;;;20.26;26.11
18918;BME280;9591;52.742;13.650;2024-01-30T12:53:13;102126.78;;;20.56;26.41
18918;BME280;9591;52.742;13.650;2024-01-30T12:56:00;102131.81;;;20.28;26.64
18918;BME280;9591;52.742;13.650;2024-01-30T12:58:49;102119.13;;;21.15;25.64
18918;BME280;9591;52.742;13.650;2024-01-30T13:01:38;102121.88;;;20.47;26.12
18918;BME280;9591;52.742;13.650;2024-01-30T13:04:26;102119.00;;;19.23;27.67
18918;BME280;9591;52.742;13.650;2024-01-30T13:07:14;102123.97;;;19.70;27.46
18918;BME280;9591;52.742;13.650;2024-01-30T13:10:00;102132.03;;;19.12;27.82
18918;BME280;9591;52.742;13.650;2024-01-30T13:12:49;102127.78;;;19.46;27.72
18918;BME280;9591;52.742;13.650;2024-01-30T13:15:38;102131.25;;;19.10;27.87
18918;BME280;9591;52.742;13.650;2024-01-30T13:18:25;102127.47;;;19.53;27.83
18918;BME280;9591;52.742;13.650;2024-01-30T13:21:11;102120.47;;;19.87;27.01
18918;BME280;9591;52.742;13.650;2024-01-30T13:23:58;102117.84;;;20.03;26.86
18918;BME280;9591;52.742;13.650;2024-01-30T13:26:45;102115.16;;;20.56;26.52
18918;BME280;9591;52.742;13.650;2024-01-30T13:29:32;102119.47;;;20.24;27.33
18918;BME280;9591;52.742;13.650;2024-01-30T13:32:20;102112.44;;;20.73;26.47
18918;BME280;9591;52.742;13.650;2024-01-30T13:35:07;102114.03;;;20.60;26.43
18918;BME280;9591;52.742;13.650;2024-01-30T13:37:55;102105.63;;;20.32;27.28
18918;BME280;9591;52.742;13.650;2024-01-30T13:40:41;102101.94;;;20.51;26.55
18918;BME280;9591;52.742;13.650;2024-01-30T13:43:28;102100.16;;;20.33;26.67
18918;BME280;9591;52.742;13.650;2024-01-30T13:46:15;102110.22;;;20.29;27.08
18918;BME280;9591;52.742;13.650;2024-01-30T13:49:03;102113.94;;;20.27;26.99
18918;BME280;9591;52.742;13.650;2024-01-30T13:51:50;102118.34;;;18.79;29.52
18918;BME280;9591;52.742;13.650;2024-01-30T13:54:39;102120.53;;;18.49;29.96
18918;BME280;9591;52.742;13.650;2024-01-30T13:57:26;102115.53;;;19.59;28.15
18918;BME280;9591;52.742;13.650;2024-01-30T14:00:13;102107.09;;;19.48;28.53
18918;BME280;9591;52.742;13.650;2024-01-30T14:03:01;102112.97;;;19.18;28.57
18918;BME280;9591;52.742;13.650;2024-01-30T14:05:50;102099.88;;;19.11;28.77
18918;BME280;9591;52.742;13.650;2024-01-30T14:08:37;102103.03;;;19.94;27.93
18918;BME280;9591;52.742;13.650;2024-01-30T14:11:24;102105.03;;;20.08;27.95
18918;BME280;9591;52.742;13.650;2024-01-30T14:14:11;102103.38;;;19.88;28.20
18918;BME280;9591;52.742;13.650;2024-01-30T14:16:59;102106.78;;;20.09;27.93
18918;BME280;9591;52.742;13.650;2024-01-30T14:19:46;102108.06;;;19.66;28.72
18918;BME280;9591;52.742;13.650;2024-01-30T14:22:34;102096.38;;;19.67;28.55
18918;BME280;9591;52.742;13.650;2024-01-30T14:25:21;102098.41;;;19.05;28.98
18918;BME280;9591;52.742;13.650;2024-01-30T14:28:08;102093.94;;;19.42;28.80
18918;BME280;9591;52.742;13.650;2024-01-30T14:30:55;102092.56;;;19.14;29.00
18918;BME280;9591;52.742;13.650;2024-01-30T14:33:42;102098.31;;;19.44;28.77
18918;BME280;9591;52.742;13.650;2024-01-30T14:36:29;102090.72;;;19.90;28.51